Time;durP1;ratioP1;P1;durP2;ratioP2;P2;SDS_P1;SDS_P2;PMS_P1;PMS_P2;Temp;Humidity;BMP_temperature;BMP_pressure;BME280_temperature;BME280_humidity;BME280_pressure;Samples;Min_cycle;Max_cycle;Signal;HPM_P1;HPM_P2
2023/01/08 00:00:45;;;;;;;9.75;4.25;;;;;;;;;;5035369;28;20070;-58
2023/01/08 00:03:10;;;;;;;10.73;4.93;;;;;;;;;;5031043;28;20029;-57
2023/01/08 00:05:35;;;;;;;9.48;4.47;;;;;;;;;;5030849;28;20529;-59
2023/01/08 00:08:00;;;;;;;10.67;4.87;;;;;;;;;;5031285;28;20054;-58
2023/01/08 00:10:26;;;;;;;8.77;4.30;;;;;;;;;;5032324;28;20025;-58
2023/01/08 00:12:51;;;;;;;9.93;4.95;;;;;;;;;;5042403;28;20506;-57
2023/01/08 00:15:16;;;;;;;10.55;5.13;;;;;;;;;;5050447;28;20061;-57
2023/01/08 00:17:41;;;;;;;9.90;5.20;;;;;;;;;;5050545;28;20040;-56
2023/01/08 00:20:06;;;;;;;10.25;5.03;;;;;;;;;;5050798;28;20432;-57
2023/01/08 00:22:31;;;;;;;11.43;5.10;;;;;;;;;;5031272;28;20041;-57
2023/01/08 00:24:57;;;;;;;10.20;5.20;;;;;;;;;;5025632;28;20032;-56
2023/01/08 00:27:22;;;;;;;9.27;4.90;;;;;;;;;;5040657;28;20022;-59
2023/01/08 00:29:47;;;;;;;10.82;4.97;;;;;;;;;;5041986;28;20041;-57
2023/01/08 00:32:12;;;;;;;13.63;5.13;;;;;;;;;;5030718;28;20064;-57
2023/01/08 00:34:37;;;;;;;10.88;4.80;;;;;;;;;;5030475;28;20085;-56
2023/01/08 00:37:02;;;;;;;10.32;5.20;;;;;;;;;;5030619;28;20046;-58
2023/01/08 00:39:27;;;;;;;10.13;5.00;;;;;;;;;;5028923;28;20029;-56
2023/01/08 00:41:53;;;;;;;9.85;4.95;;;;;;;;;;5029410;28;20478;-57
2023/01/08 00:44:18;;;;;;;10.93;5.27;;;;;;;;;;5029810;28;20148;-56
2023/01/08 00:46:43;;;;;;;10.40;5.30;;;;;;;;;;5030141;28;20010;-57
2023/01/08 00:49:08;;;;;;;13.10;5.40;;;;;;;;;;5030371;28;20021;-56
2023/01/08 00:51:33;;;;;;;9.70;4.68;;;;;;;;;;5031743;28;20028;-55
2023/01/08 00:53:58;;;;;;;8.90;4.95;;;;;;;;;;5028131;28;20054;-56
2023/01/08 00:56:23;;;;;;;11.27;5.30;;;;;;;;;;5026647;28;20124;-55
2023/01/08 00:58:49;;;;;;;11.77;5.70;;;;;;;;;;5024231;28;20585;-57
2023/01/08 01:01:14;;;;;;;10.83;5.10;;;;;;;;;;5026839;28;20060;-56
2023/01/08 01:03:40;;;;;;;11.15;5.00;;;;;;;;;;5028403;28;20065;-57
2023/01/08 01:06:05;;;;;;;9.50;5.13;;;;;;;;;;5028370;28;20022;-57
2023/01/08 01:08:31;;;;;;;12.40;5.32;;;;;;;;;;5023972;28;20026;-56
2023/01/08 01:10:56;;;;;;;10.93;5.40;;;;;;;;;;5028621;28;20017;-57
2023/01/08 01:13:21;;;;;;;9.88;5.10;;;;;;;;;;5027614;28;20028;-56
2023/01/08 01:15:55;;;;;;;10.93;5.22;;;;;;;;;;5028871;28;20045;-55
2023/01/08 01:18:20;;;;;;;9.10;4.80;;;;;;;;;;5030034;28;20075;-55
2023/01/08 01:20:45;;;;;;;12.52;5.78;;;;;;;;;;5030038;28;20025;-56
2023/01/08 01:23:10;;;;;;;11.45;5.80;;;;;;;;;;5037257;28;20048;-57
2023/01/08 01:25:36;;;;;;;12.75;5.47;;;;;;;;;;5042123;28;20036;-55
2023/01/08 01:28:02;;;;;;;11.07;5.60;;;;;;;;;;5049952;28;20029;-57
2023/01/08 01:30:27;;;;;;;10.33;5.40;;;;;;;;;;5044588;28;20021;-56
2023/01/08 01:32:52;;;;;;;11.52;5.72;;;;;;;;;;5029666;28;20045;-56
2023/01/08 01:35:17;;;;;;;9.83;4.80;;;;;;;;;;5029899;28;20029;-57
2023/01/08 01:37:42;;;;;;;11.45;5.30;;;;;;;;;;5037327;28;20488;-57
2023/01/08 01:40:07;;;;;;;10.45;5.30;;;;;;;;;;5046040;28;20024;-57
2023/01/08 01:42:39;;;;;;;10.35;5.38;;;;;;;;;;5036959;28;20079;-56
2023/01/08 01:45:15;;;;;;;10.50;5.30;;;;;;;;;;5031908;28;20083;-58
2023/01/08 01:47:41;;;;;;;10.90;5.18;;;;;;;;;;5032539;28;20056;-58
2023/01/08 01:50:06;;;;;;;12.68;5.53;;;;;;;;;;5027722;28;20021;-59
2023/01/08 01:52:33;;;;;;;9.87;5.67;;;;;;;;;;5030371;28;20013;-58
2023/01/08 01:54:59;;;;;;;11.05;5.68;;;;;;;;;;5020594;28;20022;-56
2023/01/08 01:57:25;;;;;;;11.15;5.78;;;;;;;;;;5039516;28;20043;-59
2023/01/08 01:59:51;;;;;;;11.38;5.25;;;;;;;;;;5030925;28;20108;-57
2023/01/08 02:02:16;;;;;;;11.15;5.40;;;;;;;;;;5030827;28;20029;-58
2023/01/08 02:04:42;;;;;;;11.90;5.53;;;;;;;;;;5037273;28;20084;-56
2023/01/08 02:07:24;;;;;;;12.10;5.65;;;;;;;;;;5030635;28;20028;-57
2023/01/08 02:10:15;;;;;;;10.43;6.03;;;;;;;;;;5023507;28;20024;-58
2023/01/08 02:12:43;;;;;;;12.70;5.63;;;;;;;;;;5028439;28;20100;-57
2023/01/08 02:15:17;;;;;;;10.77;5.30;;;;;;;;;;5022168;28;20014;-56
2023/01/08 02:17:51;;;;;;;11.90;6.03;;;;;;;;;;5039074;28;20362;-57
2023/01/08 02:20:22;;;;;;;12.23;5.68;;;;;;;;;;5032914;28;20030;-57
2023/01/08 02:22:47;;;;;;;10.50;5.45;;;;;;;;;;5031813;28;20021;-61
2023/01/08 02:25:29;;;;;;;10.45;5.70;;;;;;;;;;5032284;28;20041;-59
2023/01/08 02:27:55;;;;;;;12.68;5.75;;;;;;;;;;5026623;28;20026;-55
2023/01/08 02:30:21;;;;;;;11.88;6.22;;;;;;;;;;5029458;28;20047;-58
2023/01/08 02:32:46;;;;;;;11.30;5.97;;;;;;;;;;5026967;28;20022;-57
2023/01/08 02:35:11;;;;;;;13.53;6.17;;;;;;;;;;5031049;28;20038;-58
2023/01/08 02:37:37;;;;;;;11.40;5.63;;;;;;;;;;5030237;28;20048;-57
2023/01/08 02:40:02;;;;;;;11.88;5.80;;;;;;;;;;5024663;28;20060;-58
2023/01/08 02:42:46;;;;;;;11.95;6.35;;;;;;;;;;5021192;28;20026;-59
2023/01/08 02:45:11;;;;;;;;;;;;;;;;;;5029394;28;20026;-57
2023/01/08 02:47:44;;;;;;;13.35;6.13;;;;;;;;;;5027684;28;19917;-58
2023/01/08 02:50:18;;;;;;;12.30;6.20;;;;;;;;;;5025528;28;20041;-57
2023/01/08 02:52:47;;;;;;;12.95;6.97;;;;;;;;;;5030363;28;20423;-59
2023/01/08 02:55:12;;;;;;;13.88;6.80;;;;;;;;;;5029021;28;20022;-57
2023/01/08 02:57:38;;;;;;;13.63;6.47;;;;;;;;;;5024186;28;20018;-56
2023/01/08 03:00:04;;;;;;;13.25;6.40;;;;;;;;;;5028351;28;20471;-59
2023/01/08 03:02:31;;;;;;;13.73;6.85;;;;;;;;;;5025138;28;20072;-55
2023/01/08 03:04:59;;;;;;;13.55;7.65;;;;;;;;;;5028886;28;20029;-57
2023/01/08 03:07:24;;;;;;;12.60;6.45;;;;;;;;;;5030500;28;20022;-56
2023/01/08 03:09:49;;;;;;;15.27;7.33;;;;;;;;;;5027711;28;20340;-57
2023/01/08 03:12:17;;;;;;;14.70;6.70;;;;;;;;;;5030170;28;20063;-58
2023/01/08 03:14:46;;;;;;;13.18;6.82;;;;;;;;;;5028258;28;20356;-58
2023/01/08 03:17:19;;;;;;;13.25;7.05;;;;;;;;;;5029873;28;20073;-57
2023/01/08 03:19:47;;;;;;;12.98;7.03;;;;;;;;;;5026288;28;20032;-59
2023/01/08 03:22:14;;;;;;;13.75;7.65;;;;;;;;;;5028060;28;20045;-57
2023/01/08 03:24:39;;;;;;;;;;;;;;;;;;5028649;28;20478;-59
2023/01/08 03:27:05;;;;;;;13.32;6.75;;;;;;;;;;5029235;28;20358;-59
2023/01/08 03:29:32;;;;;;;13.75;7.57;;;;;;;;;;5030106;28;20029;-57
2023/01/08 03:32:00;;;;;;;14.07;7.22;;;;;;;;;;5030255;28;20561;-57
2023/01/08 03:34:27;;;;;;;15.10;7.53;;;;;;;;;;5026116;28;20457;-56
2023/01/08 03:36:52;;;;;;;;;;;;;;;;;;5030336;28;20021;-57
2023/01/08 03:39:26;;;;;;;14.55;6.75;;;;;;;;;;5024691;28;19954;-58
2023/01/08 03:41:53;;;;;;;14.45;7.47;;;;;;;;;;5034058;28;20028;-56
2023/01/08 03:44:18;;;;;;;13.82;6.78;;;;;;;;;;5022673;28;20055;-56
2023/01/08 03:46:46;;;;;;;12.85;6.97;;;;;;;;;;5028866;28;20686;-56
2023/01/08 03:49:11;;;;;;;15.23;7.63;;;;;;;;;;5030634;28;20509;-57
2023/01/08 03:51:41;;;;;;;12.97;7.53;;;;;;;;;;5030675;28;20030;-57
2023/01/08 03:54:08;;;;;;;13.10;6.97;;;;;;;;;;5024436;28;20017;-58
2023/01/08 03:56:33;;;;;;;15.25;7.75;;;;;;;;;;5029693;28;20083;-57
2023/01/08 03:58:58;;;;;;;14.65;7.93;;;;;;;;;;5029555;28;20116;-57
2023/01/08 04:01:23;;;;;;;14.07;7.28;;;;;;;;;;5027788;28;20046;-58
2023/01/08 04:03:48;;;;;;;15.55;7.70;;;;;;;;;;5028779;28;20052;-57
2023/01/08 04:06:13;;;;;;;14.90;7.15;;;;;;;;;;5029347;28;20076;-58
2023/01/08 04:08:38;;;;;;;13.67;7.37;;;;;;;;;;5017750;28;20025;-56
2023/01/08 04:11:04;;;;;;;15.70;7.70;;;;;;;;;;5030954;28;20152;-56
2023/01/08 04:13:29;;;;;;;15.47;7.43;;;;;;;;;;5033838;28;20033;-56
2023/01/08 04:15:54;;;;;;;14.23;7.47;;;;;;;;;;5043589;28;20021;-57
2023/01/08 04:18:19;;;;;;;16.03;7.67;;;;;;;;;;5042751;23;20025;-54
2023/01/08 04:20:45;;;;;;;13.52;7.40;;;;;;;;;;5011852;28;20044;-57
2023/01/08 04:23:10;;;;;;;13.88;7.70;;;;;;;;;;5010086;28;20475;-59
2023/01/08 04:25:37;;;;;;;15.57;7.57;;;;;;;;;;5010696;28;20120;-59
2023/01/08 04:28:02;;;;;;;14.68;8.27;;;;;;;;;;5011444;28;20048;-55
2023/01/08 04:30:27;;;;;;;15.73;7.63;;;;;;;;;;5012457;28;20029;-56
2023/01/08 04:32:52;;;;;;;14.48;7.65;;;;;;;;;;5010568;28;20018;-54
2023/01/08 04:35:17;;;;;;;15.73;7.67;;;;;;;;;;5029048;28;20080;-52
2023/01/08 04:37:43;;;;;;;13.40;7.38;;;;;;;;;;5031024;28;20096;-50
2023/01/08 04:40:08;;;;;;;13.05;7.47;;;;;;;;;;5017946;28;20014;-51
2023/01/08 04:42:33;;;;;;;14.68;8.10;;;;;;;;;;5010301;28;20025;-50
2023/01/08 04:44:58;;;;;;;15.30;7.68;;;;;;;;;;5012098;28;20026;-49
2023/01/08 04:47:23;;;;;;;15.32;7.90;;;;;;;;;;5012997;28;20061;-50
2023/01/08 04:49:49;;;;;;;13.88;7.80;;;;;;;;;;5013288;28;20446;-50
2023/01/08 04:52:14;;;;;;;15.57;7.55;;;;;;;;;;5010530;28;20088;-50
2023/01/08 04:54:39;;;;;;;14.70;8.10;;;;;;;;;;5011544;28;20053;-49
2023/01/08 04:57:04;;;;;;;15.52;7.50;;;;;;;;;;5011302;28;20064;-50
2023/01/08 04:59:29;;;;;;;14.50;7.95;;;;;;;;;;5011732;28;20120;-50
2023/01/08 05:01:55;;;;;;;13.15;7.38;;;;;;;;;;5010757;28;20041;-49
2023/01/08 05:04:20;;;;;;;14.63;7.32;;;;;;;;;;5011139;28;20060;-50
2023/01/08 05:06:45;;;;;;;13.83;7.50;;;;;;;;;;5010534;28;20072;-50
2023/01/08 05:09:11;;;;;;;16.90;8.63;;;;;;;;;;5010801;28;20460;-50
2023/01/08 05:11:36;;;;;;;16.20;8.37;;;;;;;;;;5009757;28;20029;-50
2023/01/08 05:14:01;;;;;;;18.00;8.37;;;;;;;;;;5010457;28;20445;-50
2023/01/08 05:16:26;;;;;;;16.03;8.43;;;;;;;;;;5010662;28;20434;-51
2023/01/08 05:18:51;;;;;;;16.27;8.70;;;;;;;;;;5011063;28;20036;-51
2023/01/08 05:21:17;;;;;;;16.80;8.77;;;;;;;;;;5009664;28;20105;-50
2023/01/08 05:23:46;;;;;;;15.85;8.50;;;;;;;;;;5010342;28;20022;-50
2023/01/08 05:26:11;;;;;;;14.20;7.97;;;;;;;;;;5010168;28;20100;-49
2023/01/08 05:28:37;;;;;;;17.23;8.23;;;;;;;;;;5010843;28;20109;-50
2023/01/08 05:31:02;;;;;;;16.02;8.80;;;;;;;;;;5007514;28;20633;-51
2023/01/08 05:33:27;;;;;;;15.68;7.93;;;;;;;;;;5009966;28;20029;-49
2023/01/08 05:35:52;;;;;;;15.57;8.02;;;;;;;;;;5010420;28;20084;-49
2023/01/08 05:38:17;;;;;;;15.73;8.30;;;;;;;;;;5012826;28;20018;-50
2023/01/08 05:40:42;;;;;;;16.90;8.27;;;;;;;;;;5013152;28;20022;-50
2023/01/08 05:43:07;;;;;;;17.70;8.38;;;;;;;;;;5013337;28;20057;-49
2023/01/08 05:45:33;;;;;;;17.75;8.90;;;;;;;;;;5013582;28;20022;-52
2023/01/08 05:47:58;;;;;;;15.50;8.60;;;;;;;;;;5014596;28;20021;-50
2023/01/08 05:50:23;;;;;;;18.77;9.52;;;;;;;;;;5014314;28;20108;-49
2023/01/08 05:52:48;;;;;;;17.98;8.98;;;;;;;;;;5011382;28;20022;-51
2023/01/08 05:55:14;;;;;;;16.53;9.10;;;;;;;;;;5014020;28;20018;-51
2023/01/08 05:57:39;;;;;;;17.80;9.25;;;;;;;;;;5013946;28;20018;-50
2023/01/08 06:00:06;;;;;;;18.48;9.18;;;;;;;;;;5011324;28;20022;-50
2023/01/08 06:02:32;;;;;;;17.98;9.45;;;;;;;;;;5006215;28;20022;-52
2023/01/08 06:04:57;;;;;;;18.77;9.82;;;;;;;;;;5013853;28;20103;-49
2023/01/08 06:07:22;;;;;;;19.27;9.18;;;;;;;;;;5011582;28;20025;-50
2023/01/08 06:09:47;;;;;;;17.52;9.45;;;;;;;;;;5011355;28;20053;-49
2023/01/08 06:12:12;;;;;;;18.30;9.25;;;;;;;;;;5013210;28;20029;-50
2023/01/08 06:14:37;;;;;;;17.75;9.13;;;;;;;;;;5012116;28;20017;-49
2023/01/08 06:17:02;;;;;;;17.80;9.57;;;;;;;;;;5011920;28;20081;-51
2023/01/08 06:19:28;;;;;;;19.08;9.82;;;;;;;;;;5004362;28;20049;-50
2023/01/08 06:21:53;;;;;;;21.85;9.18;;;;;;;;;;5006184;28;20054;-50
2023/01/08 06:24:18;;;;;;;18.17;9.30;;;;;;;;;;5009824;28;20034;-50
2023/01/08 06:26:43;;;;;;;18.00;9.10;;;;;;;;;;5000982;28;20046;-51
2023/01/08 06:29:08;;;;;;;18.52;9.93;;;;;;;;;;5006425;28;20026;-49
2023/01/08 06:31:34;;;;;;;18.03;9.13;;;;;;;;;;5010515;28;20542;-50
2023/01/08 06:33:59;;;;;;;18.35;9.35;;;;;;;;;;5009901;28;20033;-50
2023/01/08 06:36:25;;;;;;;19.20;9.60;;;;;;;;;;5009515;28;20026;-52
2023/01/08 06:38:50;;;;;;;18.00;8.95;;;;;;;;;;5006558;28;20110;-51
2023/01/08 06:41:15;;;;;;;19.42;10.02;;;;;;;;;;5009675;28;20395;-51
2023/01/08 06:43:40;;;;;;;19.63;9.75;;;;;;;;;;5009605;28;20034;-48
2023/01/08 06:46:06;;;;;;;18.42;8.85;;;;;;;;;;5010743;28;20077;-49
2023/01/08 06:48:31;;;;;;;17.88;9.48;;;;;;;;;;5019006;28;20053;-49
2023/01/08 06:50:58;;;;;;;20.10;9.60;;;;;;;;;;5019835;28;20048;-49
2023/01/08 06:53:23;;;;;;;18.42;9.00;;;;;;;;;;5015821;28;20544;-50
2023/01/08 06:55:54;;;;;;;18.83;9.17;;;;;;;;;;5012243;28;20022;-50
2023/01/08 06:58:20;;;;;;;18.30;9.20;;;;;;;;;;5012539;28;20052;-50
2023/01/08 07:00:45;;;;;;;19.42;9.30;;;;;;;;;;5012894;28;20053;-50
2023/01/08 07:03:10;;;;;;;19.83;10.48;;;;;;;;;;5007443;28;20943;-50
2023/01/08 07:05:36;;;;;;;17.73;8.43;;;;;;;;;;5010683;28;20053;-50
2023/01/08 07:08:01;;;;;;;17.87;8.77;;;;;;;;;;5028812;28;20018;-51
2023/01/08 07:10:26;;;;;;;17.80;8.90;;;;;;;;;;5016591;28;20021;-50
2023/01/08 07:12:52;;;;;;;18.13;9.33;;;;;;;;;;5005687;28;20014;-51
2023/01/08 07:15:17;;;;;;;19.20;9.45;;;;;;;;;;5008924;28;20123;-50
2023/01/08 07:17:42;;;;;;;19.40;8.20;;;;;;;;;;5020485;28;20014;-50
2023/01/08 07:20:08;;;;;;;18.03;8.87;;;;;;;;;;5019331;28;20517;-50
2023/01/08 07:22:33;;;;;;;16.33;8.35;;;;;;;;;;5011629;28;20029;-50
2023/01/08 07:24:59;;;;;;;18.65;9.32;;;;;;;;;;5007643;28;20037;-51
2023/01/08 07:27:24;;;;;;;19.40;8.48;;;;;;;;;;5009734;28;20056;-48
2023/01/08 07:29:49;;;;;;;17.88;8.73;;;;;;;;;;5008685;28;20022;-50
2023/01/08 07:32:14;;;;;;;17.20;7.80;;;;;;;;;;5007534;28;20030;-50
2023/01/08 07:34:39;;;;;;;18.25;8.25;;;;;;;;;;5017691;28;20089;-49
2023/01/08 07:37:04;;;;;;;17.10;8.38;;;;;;;;;;5020791;28;20038;-50
2023/01/08 07:39:30;;;;;;;18.30;8.48;;;;;;;;;;5014743;28;20031;-49
2023/01/08 07:41:55;;;;;;;17.77;9.15;;;;;;;;;;5009893;28;20033;-51
2023/01/08 07:44:20;;;;;;;17.45;8.57;;;;;;;;;;5010944;28;20033;-50
2023/01/08 07:46:46;;;;;;;16.20;7.90;;;;;;;;;;5011053;28;20022;-51
2023/01/08 07:49:11;;;;;;;15.82;7.93;;;;;;;;;;5010896;28;20100;-49
2023/01/08 07:51:36;;;;;;;15.40;7.63;;;;;;;;;;5014828;28;20037;-51
2023/01/08 07:54:01;;;;;;;17.88;8.38;;;;;;;;;;5006455;28;20426;-52
2023/01/08 07:56:26;;;;;;;16.00;7.80;;;;;;;;;;5009414;28;20037;-50
2023/01/08 07:58:51;;;;;;;16.63;8.20;;;;;;;;;;5000503;28;20087;-49
2023/01/08 08:01:16;;;;;;;17.10;8.00;;;;;;;;;;5000234;28;20191;-50
2023/01/08 08:03:42;;;;;;;16.02;8.18;;;;;;;;;;5009221;28;20030;-49
2023/01/08 08:06:07;;;;;;;18.63;8.63;;;;;;;;;;5006275;28;20033;-50
2023/01/08 08:08:33;;;;;;;15.75;7.63;;;;;;;;;;5011400;28;20413;-50
2023/01/08 08:10:58;;;;;;;14.82;7.53;;;;;;;;;;5011247;28;20440;-50
2023/01/08 08:13:23;;;;;;;17.27;7.70;;;;;;;;;;5010296;28;20040;-50
2023/01/08 08:15:48;;;;;;;15.90;7.65;;;;;;;;;;5006838;28;20057;-51
2023/01/08 08:18:13;;;;;;;17.67;7.50;;;;;;;;;;4998714;28;20026;-49
2023/01/08 08:20:38;;;;;;;16.27;7.25;;;;;;;;;;5014293;28;20021;-50
2023/01/08 08:23:05;;;;;;;15.47;7.27;;;;;;;;;;5008428;28;20018;-50
2023/01/08 08:25:30;;;;;;;17.42;7.68;;;;;;;;;;5009891;28;20124;-52
2023/01/08 08:27:57;;;;;;;15.57;7.28;;;;;;;;;;5012336;28;20096;-50
2023/01/08 08:30:22;;;;;;;15.70;7.25;;;;;;;;;;5008860;28;20026;-49
2023/01/08 08:32:47;;;;;;;15.90;7.30;;;;;;;;;;5010301;28;20014;-52
2023/01/08 08:35:12;;;;;;;15.30;7.03;;;;;;;;;;5005627;28;20108;-51
2023/01/08 08:37:38;;;;;;;16.33;7.63;;;;;;;;;;5006123;28;20043;-50
2023/01/08 08:40:03;;;;;;;14.95;7.05;;;;;;;;;;5003314;28;20033;-50
2023/01/08 08:42:28;;;;;;;15.55;7.43;;;;;;;;;;5002670;28;20506;-51
2023/01/08 08:44:53;;;;;;;16.57;7.57;;;;;;;;;;5005757;28;20552;-50
2023/01/08 08:47:18;;;;;;;16.48;7.18;;;;;;;;;;5012101;28;20022;-50
2023/01/08 08:49:43;;;;;;;13.70;6.95;;;;;;;;;;5012708;28;20044;-50
2023/01/08 08:52:09;;;;;;;14.07;7.10;;;;;;;;;;5011313;28;20388;-51
2023/01/08 08:54:34;;;;;;;14.65;6.88;;;;;;;;;;5010865;28;20034;-50
2023/01/08 08:56:59;;;;;;;13.10;6.73;;;;;;;;;;5011073;28;20022;-50
2023/01/08 08:59:24;;;;;;;15.93;7.20;;;;;;;;;;5010200;28;20030;-51
2023/01/08 09:01:49;;;;;;;13.03;6.47;;;;;;;;;;5010858;28;20014;-51
2023/01/08 09:04:14;;;;;;;13.30;6.70;;;;;;;;;;5010906;28;20042;-50
2023/01/08 09:06:39;;;;;;;13.23;6.30;;;;;;;;;;5010871;28;20083;-51
2023/01/08 09:09:05;;;;;;;13.73;6.30;;;;;;;;;;5010328;28;20084;-51
2023/01/08 09:11:30;;;;;;;15.43;6.80;;;;;;;;;;5010745;28;20018;-51
2023/01/08 09:13:55;;;;;;;13.65;6.55;;;;;;;;;;5010741;28;20054;-50
2023/01/08 09:16:20;;;;;;;13.80;6.93;;;;;;;;;;4995891;28;20482;-50
2023/01/08 09:18:47;;;;;;;13.73;6.78;;;;;;;;;;4995331;28;20040;-51
2023/01/08 09:21:13;;;;;;;13.25;6.53;;;;;;;;;;5012871;28;20021;-51
2023/01/08 09:23:38;;;;;;;14.80;7.50;;;;;;;;;;5010664;28;20026;-50
2023/01/08 09:26:04;;;;;;;13.83;7.07;;;;;;;;;;5010314;28;20018;-50
2023/01/08 09:28:29;;;;;;;14.65;7.03;;;;;;;;;;5008961;28;20026;-50
2023/01/08 09:30:54;;;;;;;14.65;7.38;;;;;;;;;;5010969;28;20114;-50
2023/01/08 09:33:19;;;;;;;15.10;7.40;;;;;;;;;;5010818;28;20026;-48
2023/01/08 09:35:45;;;;;;;13.77;6.90;;;;;;;;;;5010706;28;20026;-51
2023/01/08 09:38:10;;;;;;;13.50;6.70;;;;;;;;;;5009825;28;20022;-53
2023/01/08 09:40:37;;;;;;;17.70;7.47;;;;;;;;;;5011129;28;20014;-50
2023/01/08 09:43:04;;;;;;;13.88;7.00;;;;;;;;;;5011311;28;20102;-50
2023/01/08 09:45:30;;;;;;;13.30;7.00;;;;;;;;;;5010407;28;20470;-50
2023/01/08 09:47:58;;;;;;;14.88;7.18;;;;;;;;;;5011168;28;20054;-50
2023/01/08 09:50:25;;;;;;;14.45;6.93;;;;;;;;;;5009651;28;20099;-49
2023/01/08 09:52:50;;;;;;;14.20;6.72;;;;;;;;;;5010364;28;20029;-51
2023/01/08 09:55:15;;;;;;;13.05;6.65;;;;;;;;;;5009187;28;20022;-51
2023/01/08 09:57:41;;;;;;;14.97;6.33;;;;;;;;;;5009876;28;20471;-51
2023/01/08 10:00:12;;;;;;;14.65;7.22;;;;;;;;;;5010327;28;20021;-49
2023/01/08 10:02:38;;;;;;;14.10;6.72;;;;;;;;;;5010376;28;20018;-53
2023/01/08 10:05:09;;;;;;;13.02;6.38;;;;;;;;;;5008980;28;20076;-52
2023/01/08 10:07:34;;;;;;;13.27;6.35;;;;;;;;;;5002589;28;20014;-50
2023/01/08 10:10:00;;;;;;;13.30;6.80;;;;;;;;;;5010146;28;20092;-50
2023/01/08 10:12:27;;;;;;;11.63;5.93;;;;;;;;;;5010657;28;20101;-51
2023/01/08 10:14:53;;;;;;;12.18;6.15;;;;;;;;;;5008778;28;20442;-49
2023/01/08 10:17:23;;;;;;;12.35;6.03;;;;;;;;;;5009884;28;20029;-49
2023/01/08 10:19:48;;;;;;;13.20;6.97;;;;;;;;;;5116078;23;20069;-57
2023/01/08 10:22:21;;;;;;;13.55;6.80;;;;;;;;;;5030344;28;20021;-58
2023/01/08 10:24:46;;;;;;;14.52;7.22;;;;;;;;;;5032175;28;20582;-56
2023/01/08 10:27:13;;;;;;;14.40;7.07;;;;;;;;;;5032306;28;20121;-56
2023/01/08 10:29:41;;;;;;;14.23;7.22;;;;;;;;;;5033894;28;20053;-58
2023/01/08 10:32:08;;;;;;;15.63;6.97;;;;;;;;;;5033520;28;20018;-56
2023/01/08 10:34:43;;;;;;;15.75;8.02;;;;;;;;;;5033115;28;20022;-57
2023/01/08 10:37:28;;;;;;;15.43;8.20;;;;;;;;;;5032107;28;20025;-55
2023/01/08 10:39:55;;;;;;;15.48;7.82;;;;;;;;;;5033557;28;20026;-56
2023/01/08 10:42:20;;;;;;;;;;;;;;;;;;5034032;28;20033;-56
2023/01/08 10:44:51;;;;;;;16.20;7.65;;;;;;;;;;5033012;28;19913;-56
2023/01/08 10:47:17;;;;;;;15.82;7.75;;;;;;;;;;5031522;28;20049;-56
2023/01/08 10:49:44;;;;;;;15.60;8.05;;;;;;;;;;5033484;28;20397;-56
2023/01/08 10:52:38;;;;;;;17.40;8.63;;;;;;;;;;5032924;28;20444;-56
2023/01/08 10:55:22;;;;;;;17.30;8.18;;;;;;;;;;5021704;28;20470;-56
2023/01/08 10:58:00;;;;;;;18.05;8.70;;;;;;;;;;5027205;28;20382;-56
2023/01/08 11:00:29;;;;;;;14.27;7.28;;;;;;;;;;5032844;28;20021;-56
2023/01/08 11:02:59;;;;;;;15.00;7.53;;;;;;;;;;5033532;28;20028;-55
2023/01/08 11:05:32;;;;;;;15.15;7.43;;;;;;;;;;5031387;28;20033;-55
2023/01/08 11:07:58;;;;;;;15.82;7.28;;;;;;;;;;5032589;28;20355;-56
2023/01/08 11:10:24;;;;;;;15.15;7.32;;;;;;;;;;5033543;28;20021;-56
2023/01/08 11:12:53;;;;;;;13.57;7.05;;;;;;;;;;5032708;28;20030;-55
2023/01/08 11:15:21;;;;;;;14.77;7.35;;;;;;;;;;5031260;28;20546;-55
2023/01/08 11:17:46;;;;;;;16.08;7.65;;;;;;;;;;5032418;28;20037;-55
2023/01/08 11:20:18;;;;;;;15.77;7.47;;;;;;;;;;5032579;28;20033;-57
2023/01/08 11:22:43;;;;;;;14.82;7.63;;;;;;;;;;5032776;28;20048;-56
2023/01/08 11:25:12;;;;;;;14.85;7.95;;;;;;;;;;5031666;28;20479;-55
2023/01/08 11:27:39;;;;;;;15.23;7.88;;;;;;;;;;5033002;28;20013;-55
2023/01/08 11:30:06;;;;;;;14.35;7.35;;;;;;;;;;5032918;28;20017;-56
2023/01/08 11:32:37;;;;;;;15.57;7.10;;;;;;;;;;5022239;28;20482;-56
2023/01/08 11:35:11;;;;;;;14.57;6.93;;;;;;;;;;5012693;28;20022;-55
2023/01/08 11:37:39;;;;;;;15.02;7.53;;;;;;;;;;5032625;28;20025;-56
2023/01/08 11:40:27;;;;;;;14.00;7.38;;;;;;;;;;5034100;28;20017;-57
2023/01/08 11:43:04;;;;;;;14.70;6.88;;;;;;;;;;5034498;28;20028;-57
2023/01/08 11:45:38;;;;;;;12.77;6.88;;;;;;;;;;5032612;28;20096;-55
2023/01/08 11:48:09;;;;;;;13.23;6.25;;;;;;;;;;5033848;28;20418;-56
2023/01/08 11:50:37;;;;;;;14.60;6.70;;;;;;;;;;5026213;28;20021;-56
2023/01/08 11:53:09;;;;;;;12.10;6.47;;;;;;;;;;5036781;28;20021;-56
2023/01/08 11:55:50;;;;;;;12.90;6.40;;;;;;;;;;5036267;28;20033;-55
2023/01/08 11:58:34;;;;;;;13.68;6.63;;;;;;;;;;5033884;28;20032;-55
2023/01/08 12:01:17;;;;;;;13.27;6.60;;;;;;;;;;5032767;28;20429;-57
2023/01/08 12:03:46;;;;;;;11.52;5.90;;;;;;;;;;5032535;28;20116;-56
2023/01/08 12:06:11;;;;;;;13.65;6.55;;;;;;;;;;5030437;28;20394;-56
2023/01/08 12:08:50;;;;;;;14.20;6.70;;;;;;;;;;5032273;28;20025;-57
2023/01/08 12:11:22;;;;;;;13.65;6.22;;;;;;;;;;5030844;28;20095;-56
2023/01/08 12:13:54;;;;;;;13.20;6.43;;;;;;;;;;5031343;28;20099;-57
2023/01/08 12:16:37;;;;;;;13.77;6.63;;;;;;;;;;5030202;28;20099;-55
2023/01/08 12:19:12;;;;;;;13.30;6.57;;;;;;;;;;5031429;28;20040;-57
2023/01/08 12:22:04;;;;;;;13.18;6.60;;;;;;;;;;5031594;28;20463;-56
2023/01/08 12:24:48;;;;;;;12.82;6.07;;;;;;;;;;5029057;28;20044;-56
2023/01/08 12:27:24;;;;;;;13.25;6.38;;;;;;;;;;5029822;28;20037;-57
2023/01/08 12:30:06;;;;;;;13.38;6.53;;;;;;;;;;5025659;28;20033;-56
2023/01/08 12:32:40;;;;;;;13.38;6.13;;;;;;;;;;5012196;28;20033;-56
2023/01/08 12:35:14;;;;;;;11.43;5.53;;;;;;;;;;5012755;28;20108;-56
2023/01/08 12:37:47;;;;;;;12.52;5.75;;;;;;;;;;5028897;28;20025;-56
2023/01/08 12:40:14;;;;;;;11.80;5.93;;;;;;;;;;5031234;28;20418;-56
2023/01/08 12:42:41;;;;;;;12.48;5.32;;;;;;;;;;5030345;28;20021;-57
2023/01/08 12:45:12;;;;;;;11.63;5.60;;;;;;;;;;5018631;28;20041;-58
2023/01/08 12:47:39;;;;;;;12.80;5.93;;;;;;;;;;5028631;28;20453;-56
2023/01/08 12:50:13;;;;;;;12.00;5.75;;;;;;;;;;5027074;28;20471;-55
2023/01/08 12:52:46;;;;;;;12.48;6.18;;;;;;;;;;5022977;28;20475;-56
2023/01/08 12:55:41;;;;;;;13.02;5.72;;;;;;;;;;5021791;28;20030;-56
2023/01/08 12:58:15;;;;;;;13.45;5.68;;;;;;;;;;4979474;28;20045;-56
2023/01/08 13:00:51;;;;;;;13.65;6.18;;;;;;;;;;5020135;28;20104;-55
2023/01/08 13:03:20;;;;;;;12.50;6.05;;;;;;;;;;5022026;28;20041;-56
2023/01/08 13:05:45;;;;;;;14.77;6.18;;;;;;;;;;5029154;28;20051;-57
2023/01/08 13:08:25;;;;;;;14.87;6.30;;;;;;;;;;5030486;28;20040;-56
2023/01/08 13:10:52;;;;;;;16.10;6.43;;;;;;;;;;5027605;28;20033;-57
2023/01/08 13:13:28;;;;;;;13.02;6.30;;;;;;;;;;5030325;28;20021;-56
2023/01/08 13:16:04;;;;;;;15.48;6.97;;;;;;;;;;5025857;28;20075;-57
2023/01/08 13:18:29;;;;;;;14.18;6.65;;;;;;;;;;5028215;28;20028;-55
2023/01/08 13:20:59;;;;;;;14.83;6.43;;;;;;;;;;5021736;28;20018;-56
2023/01/08 13:23:25;;;;;;;14.73;6.75;;;;;;;;;;5029241;28;20013;-56
2023/01/08 13:25:51;;;;;;;14.48;6.93;;;;;;;;;;5027732;28;20478;-55
2023/01/08 13:28:26;;;;;;;15.82;6.75;;;;;;;;;;5028442;28;20059;-56
2023/01/08 13:30:54;;;;;;;16.23;7.18;;;;;;;;;;5022748;28;20026;-56
2023/01/08 13:33:25;;;;;;;16.80;7.13;;;;;;;;;;5022119;28;20033;-56
2023/01/08 13:35:51;;;;;;;13.95;6.50;;;;;;;;;;5028751;28;20021;-56
2023/01/08 13:38:17;;;;;;;14.85;6.38;;;;;;;;;;5027713;28;20509;-55
2023/01/08 13:40:42;;;;;;;15.95;7.28;;;;;;;;;;5024872;28;20390;-55
2023/01/08 13:43:18;;;;;;;15.98;7.13;;;;;;;;;;5028007;28;20478;-55
2023/01/08 13:45:50;;;;;;;14.35;6.68;;;;;;;;;;5033521;28;20029;-56
2023/01/08 13:48:23;;;;;;;15.13;6.80;;;;;;;;;;5031404;28;20036;-56
2023/01/08 13:50:48;;;;;;;;;;;;;;;;;;5022708;28;20026;-56
2023/01/08 13:53:14;;;;;;;13.30;6.33;;;;;;;;;;5013950;28;19917;-56
2023/01/08 13:55:40;;;;;;;15.68;6.30;;;;;;;;;;5018140;28;20033;-56
2023/01/08 13:58:17;;;;;;;13.13;6.15;;;;;;;;;;5027286;28;20018;-56
2023/01/08 14:00:42;;;;;;;13.95;6.45;;;;;;;;;;5026035;28;20033;-57
2023/01/08 14:03:27;;;;;;;13.00;6.20;;;;;;;;;;5029400;28;20448;-55
2023/01/08 14:06:03;;;;;;;13.60;6.43;;;;;;;;;;5028756;28;20037;-54
2023/01/08 14:08:28;;;;;;;13.07;6.00;;;;;;;;;;5017654;28;20049;-56
2023/01/08 14:10:54;;;;;;;13.63;6.43;;;;;;;;;;5030092;28;20025;-56
2023/01/08 14:13:22;;;;;;;13.93;6.30;;;;;;;;;;5028622;28;20040;-55
2023/01/08 14:15:47;;;;;;;14.02;7.00;;;;;;;;;;5027401;28;20030;-57
2023/01/08 14:18:12;;;;;;;15.50;7.00;;;;;;;;;;5027835;28;20033;-55
2023/01/08 14:20:39;;;;;;;16.95;7.07;;;;;;;;;;5027176;28;20123;-56
2023/01/08 14:23:09;;;;;;;14.68;7.20;;;;;;;;;;5028635;28;20029;-56
2023/01/08 14:25:35;;;;;;;16.25;7.20;;;;;;;;;;5023174;28;20061;-57
2023/01/08 14:28:01;;;;;;;16.00;7.60;;;;;;;;;;5029438;28;20057;-56
2023/01/08 14:30:27;;;;;;;18.58;7.55;;;;;;;;;;5024623;28;20070;-58
2023/01/08 14:32:53;;;;;;;14.80;6.90;;;;;;;;;;5034718;28;20157;-56